Accueil
METAR-TAF:

METAR-TAF

Aéroports :

Batman, Turquie

latitude: 37-52N, longitude: 041-10E, altitude: 540 m

Observation

Le bulletin a été fait il y a 21 minutes, à 10:50 UTC
Vent 2 kt de direction variable
Température 5°C
Humidité 56%
Pression 1025 hPa
Visibilité 10 km ou plus
pas de nuages en-dessous de 1500 mètres et pas de cumulonimbus.

METAR: LTCJ 201050Z VRB02KT CAVOK 05/M03 Q1025

Heure: 14:11 (11:11 UTC)

Prévision

Le bulletin a été fait il y a 6 heures et 31 minutes, à 04:40 UTC
Prévision valable du 20 à 06 UTC au 21 à 06 UTC
Vent 2 kt de direction variable
Visibilité 10 km ou plus
pas de nuages en-dessous de 1500 mètres et pas de cumulonimbus.
Temporairement
du 20 à 06 UTC au 20 à 09 UTC
Visibilité: 2500 m
brume

TAF: LTCJ 200440Z 2006/2106 VRB02KT CAVOK TEMPO 2006/2009 2500 BR

Observations et prévisions météorologiques de plus de 4000 aéroports (messages METAR et TAF).

Les stations disponibles sont représentées par des disques jaunes et rouges sur la carte.

Passer la souris dessus pour voir le nom de la station.

Cliquer dessus pour voir les observations et prévisions météorologiques.

Pour changer de carte: cliquez sur les boutons verts avec une croix noire pour zoomer, sur le bouton vert avec un tiret pour effectuer un zoom arrière, ou sur les flèches vertes pour les cartes adjacentes.


METAR-TAF: